Time;durP1;ratioP1;P1;durP2;ratioP2;P2;SDS_P1;SDS_P2;PMS_P1;PMS_P2;Temp;Humidity;BMP_temperature;BMP_pressure;BME280_temperature;BME280_humidity;BME280_pressure;Samples;Min_cycle;Max_cycle;Signal;HPM_P1;HPM_P2
2021/09/19 09:58:29;;;;;;;3.95;3.75;;;18.50;99.90;;;;;;5090937;28;20583;-70
2021/09/19 10:00:56;;;;;;;3.50;3.30;;;17.00;99.90;;;;;;5090799;28;20168;-70
2021/09/19 10:03:24;;;;;;;3.70;3.50;;;17.00;99.90;;;;;;5090788;28;20195;-71
2021/09/19 10:05:49;;;;;;;3.47;3.28;;;17.00;99.90;;;;;;5090805;28;20160;-71
2021/09/19 10:08:15;;;;;;;3.70;3.50;;;17.00;99.90;;;;;;5090739;28;20168;-71
2021/09/19 10:10:43;;;;;;;3.20;3.00;;;17.00;99.90;;;;;;5090713;28;20618;-71
2021/09/19 10:13:11;;;;;;;4.25;4.03;;;17.00;99.90;;;;;;5090793;28;20172;-71
2021/09/19 10:15:37;;;;;;;3.38;3.17;;;17.00;99.90;;;;;;5091399;28;20160;-71
2021/09/19 10:18:03;;;;;;;3.85;3.65;;;17.00;99.90;;;;;;5090504;28;20204;-71
2021/09/19 10:20:37;;;;;;;3.50;3.30;;;17.00;99.90;;;;;;5090463;28;20525;-71
2021/09/19 10:23:09;;;;;;;4.07;3.75;;;17.10;99.90;;;;;;5090480;28;20163;-71
2021/09/19 10:25:48;;;;;;;3.00;2.72;;;17.10;99.90;;;;;;5089191;28;20508;-71
2021/09/19 10:28:37;;;;;;;4.50;4.20;;;17.10;99.90;;;;;;5090336;28;20293;-71
2021/09/19 10:31:09;;;;;;;3.60;3.08;;;17.20;99.90;;;;;;5090039;28;20192;-71
2021/09/19 10:33:34;;;;;;;3.72;3.53;;;17.20;99.90;;;;;;5090289;28;20172;-71
2021/09/19 10:36:01;;;;;;;4.45;3.60;;;17.20;99.90;;;;;;5088916;28;20183;-71
2021/09/19 10:38:38;;;;;;;4.30;4.00;;;17.30;99.90;;;;;;5090159;28;20179;-71
2021/09/19 10:41:17;;;;;;;3.83;3.63;;;17.40;99.90;;;;;;5090161;28;20175;-71
2021/09/19 10:44:04;;;;;;;4.40;4.10;;;17.50;99.90;;;;;;5090114;28;20191;-71
2021/09/19 10:46:35;;;;;;;4.18;3.97;;;17.60;99.90;;;;;;5090115;28;20199;-71
2021/09/19 10:49:19;;;;;;;4.03;3.83;;;17.60;99.90;;;;;;5089936;28;20633;-71
2021/09/19 10:52:00;;;;;;;4.15;3.92;;;17.70;99.90;;;;;;5089883;28;20171;-71
2021/09/19 10:54:53;;;;;;;3.90;3.40;;;17.70;99.90;;;;;;5089843;28;20522;-71
2021/09/19 10:57:22;;;;;;;3.67;3.47;;;17.70;99.90;;;;;;5089571;28;20223;-71
2021/09/19 11:00:16;;;;;;;3.40;3.20;;;17.70;99.90;;;;;;5088496;28;20641;-71
2021/09/19 11:02:58;;;;;;;3.60;3.40;;;17.70;99.90;;;;;;5089604;28;20254;-71
2021/09/19 11:05:32;;;;;;;5.30;3.38;;;17.70;99.90;;;;;;5089749;28;20523;-71
2021/09/19 11:08:07;;;;;;;3.60;3.40;;;17.70;99.90;;;;;;5085444;28;20196;-71
2021/09/19 11:10:34;;;;;;;4.00;3.70;;;17.80;99.90;;;;;;5076065;28;20532;-71
2021/09/19 11:13:20;;;;;;;4.40;4.10;;;17.80;99.90;;;;;;5075963;28;20626;-71
2021/09/19 11:16:04;;;;;;;3.58;3.38;;;17.80;99.90;;;;;;5076046;28;20734;-71
2021/09/19 11:18:39;;;;;;;4.10;3.80;;;17.80;99.90;;;;;;5074658;28;20180;-71
2021/09/19 11:21:11;;;;;;;4.07;3.88;;;17.70;99.90;;;;;;5075917;28;20168;-71
2021/09/19 11:23:55;;;;;;;4.35;4.05;;;17.70;99.90;;;;;;5075874;28;20207;-71
2021/09/19 11:26:23;;;;;;;4.97;4.57;;;17.60;99.90;;;;;;5075775;28;20526;-71
2021/09/19 11:28:50;;;;;;;4.18;3.88;;;17.60;99.90;;;;;;5075790;28;20180;-68
2021/09/19 11:31:17;;;;;;;3.85;3.60;;;17.60;99.90;;;;;;5075719;28;20180;-69
2021/09/19 11:33:44;;;;;;;4.60;4.22;;;17.70;99.90;;;;;;5075788;28;20179;-68
2021/09/19 11:36:14;;;;;;;3.90;3.70;;;17.60;99.90;;;;;;5075529;28;20172;-68
2021/09/19 11:38:46;;;;;;;4.57;4.38;;;17.70;99.90;;;;;;5074327;28;20183;-68
2021/09/19 11:41:13;;;;;;;4.00;3.80;;;17.70;99.90;;;;;;5075530;28;20205;-68
2021/09/19 11:43:40;;;;;;;4.43;4.05;;;17.60;99.90;;;;;;5075501;28;20168;-68
2021/09/19 11:46:08;;;;;;;3.97;3.78;;;17.80;99.90;;;;;;5075361;28;20176;-69
2021/09/19 11:48:33;;;;;;;3.80;3.60;;;17.80;99.90;;;;;;5075404;28;20179;-69
2021/09/19 11:51:00;;;;;;;4.32;4.03;;;17.80;99.90;;;;;;5075332;28;20168;-68
2021/09/19 11:53:26;;;;;;;3.90;3.65;;;17.90;99.90;;;;;;5075256;28;20168;-69
2021/09/19 11:55:53;;;;;;;3.60;3.42;;;18.00;99.90;;;;;;5075281;28;20466;-69
2021/09/19 11:58:20;;;;;;;4.20;3.80;;;18.00;99.90;;;;;;5074994;28;20224;-69
2021/09/19 12:00:53;;;;;;;4.30;4.00;;;18.10;99.90;;;;;;5075147;28;20164;-69
2021/09/19 12:03:19;;;;;;;3.72;3.53;;;18.10;99.90;;;;;;5075078;28;20195;-69
2021/09/19 12:05:53;;;;;;;3.92;3.63;;;18.20;99.90;;;;;;5075083;28;20251;-69
2021/09/19 12:08:20;;;;;;;4.47;4.18;;;18.20;99.90;;;;;;5075120;28;20184;-69
2021/09/19 12:10:50;;;;;;;4.18;3.88;;;18.20;99.90;;;;;;5074972;28;20499;-69
2021/09/19 12:13:30;;;;;;;3.83;3.50;;;18.20;99.90;;;;;;5074884;28;20176;-69
2021/09/19 12:16:15;;;;;;;3.60;3.40;;;18.30;99.90;;;;;;5074867;28;20225;-69
2021/09/19 12:18:43;;;;;;;3.67;3.47;;;18.20;99.90;;;;;;5074780;28;20250;-69
2021/09/19 12:21:11;;;;;;;3.88;3.67;;;18.20;99.90;;;;;;5072486;28;20221;-69
2021/09/19 12:23:50;;;;;;;4.05;3.75;;;18.20;99.90;;;;;;5074665;28;20156;-69
2021/09/19 12:26:29;;;;;;;4.13;3.92;;;18.10;99.90;;;;;;5074581;28;20163;-70
2021/09/19 12:29:03;;;;;;;4.35;4.05;;;18.00;99.90;;;;;;5073344;28;20191;-70
2021/09/19 12:31:43;;;;;;;3.97;3.67;;;17.90;99.90;;;;;;5074548;28;20235;-70
2021/09/19 12:34:11;;;;;;;3.80;3.60;;;17.90;99.90;;;;;;5074455;28;20219;-70
2021/09/19 12:36:52;;;;;;;7.10;3.83;;;17.80;99.90;;;;;;5074373;28;20188;-70
2021/09/19 12:39:27;;;;;;;3.95;3.75;;;17.80;99.90;;;;;;5074342;28;20160;-70
2021/09/19 12:41:57;;;;;;;4.25;3.97;;;17.60;99.90;;;;;;5074277;28;20209;-70
2021/09/19 12:44:29;;;;;;;4.70;4.40;;;17.70;99.90;;;;;;5073002;28;20634;-70
2021/09/19 12:46:58;;;;;;;5.22;3.70;;;17.60;99.90;;;;;;5074292;28;20504;-70
2021/09/19 12:49:25;;;;;;;4.40;4.20;;;17.50;99.90;;;;;;5074177;28;20191;-70
2021/09/19 12:52:02;;;;;;;4.63;4.32;;;17.50;99.90;;;;;;5074045;28;20176;-70
2021/09/19 12:54:28;;;;;;;5.90;4.07;;;17.40;99.90;;;;;;5074091;28;20187;-70
2021/09/19 12:56:53;;;;;;;4.72;4.43;;;17.50;99.90;;;;;;5074074;28;20227;-70
2021/09/19 12:59:21;;;;;;;4.15;3.85;;;17.50;99.90;;;;;;5073963;28;20168;-70
2021/09/19 13:01:47;;;;;;;4.45;4.05;;;17.50;99.90;;;;;;5072638;28;20179;-70
2021/09/19 13:04:12;;;;;;;4.93;4.60;;;17.60;99.90;;;;;;5073763;28;20187;-70
2021/09/19 13:06:38;;;;;;;3.85;3.58;;;17.60;99.90;;;;;;5073883;28;20205;-70
2021/09/19 13:09:04;;;;;;;5.13;3.75;;;17.60;99.90;;;;;;5072607;28;20172;-70
2021/09/19 13:11:30;;;;;;;4.03;3.83;;;17.60;99.90;;;;;;5073724;28;20172;-70
2021/09/19 13:13:55;;;;;;;3.53;3.33;;;17.60;99.90;;;;;;5073861;28;20555;-70
2021/09/19 13:16:21;;;;;;;4.20;4.00;;;17.50;99.90;;;;;;5073627;28;20259;-70
2021/09/19 13:18:46;;;;;;;4.30;3.97;;;17.40;99.90;;;;;;5073509;28;20161;-70
2021/09/19 13:21:12;;;;;;;4.10;3.88;;;17.40;99.90;;;;;;5073624;28;20148;-70
2021/09/19 13:23:38;;;;;;;3.60;3.40;;;17.30;99.90;;;;;;5073562;28;20173;-70
2021/09/19 13:26:03;;;;;;;3.85;3.65;;;17.30;99.90;;;;;;5073482;28;20163;-70
2021/09/19 13:28:29;;;;;;;4.32;3.92;;;17.20;99.90;;;;;;5073396;28;20171;-70
2021/09/19 13:30:54;;;;;;;4.85;4.45;;;17.10;99.90;;;;;;5073153;28;20709;-70
2021/09/19 13:33:20;;;;;;;4.57;4.28;;;17.10;99.90;;;;;;5073395;28;20180;-70
2021/09/19 13:35:45;;;;;;;4.35;4.07;;;17.00;99.90;;;;;;5073515;28;20544;-70
2021/09/19 13:38:11;;;;;;;5.00;4.45;;;17.00;99.90;;;;;;5073355;28;20199;-70
2021/09/19 13:40:37;;;;;;;4.90;4.53;;;17.00;99.90;;;;;;5073413;28;20618;-70
2021/09/19 13:43:05;;;;;;;5.63;5.13;;;16.90;99.90;;;;;;5072081;28;20173;-70
2021/09/19 13:45:33;;;;;;;4.75;4.45;;;16.90;99.90;;;;;;5073446;28;20164;-70
2021/09/19 13:48:01;;;;;;;4.82;4.50;;;16.90;99.90;;;;;;5072092;28;20626;-70
2021/09/19 13:50:26;;;;;;;5.22;4.93;;;16.90;99.90;;;;;;5073229;28;20172;-70
2021/09/19 13:52:52;;;;;;;5.43;4.93;;;16.90;99.90;;;;;;5073270;28;20172;-70
2021/09/19 13:55:17;;;;;;;4.82;4.53;;;16.90;99.90;;;;;;5073198;28;20176;-70
2021/09/19 13:57:43;;;;;;;4.38;4.13;;;16.90;99.90;;;;;;5072997;28;20681;-70
2021/09/19 14:00:09;;;;;;;4.40;4.10;;;16.90;99.90;;;;;;5073028;28;20267;-70
2021/09/19 14:02:36;;;;;;;4.57;4.20;;;16.90;99.90;;;;;;5071857;28;20177;-70
2021/09/19 14:05:04;;;;;;;8.52;5.70;;;17.00;99.90;;;;;;5073174;28;20294;-70
2021/09/19 14:07:30;;;;;;;4.82;4.53;;;17.00;99.90;;;;;;5073184;28;20194;-70
2021/09/19 14:09:56;;;;;;;4.53;4.22;;;17.00;99.90;;;;;;5073127;28;20626;-70
2021/09/19 14:12:22;;;;;;;4.40;4.10;;;17.00;99.90;;;;;;5073060;28;20179;-70
2021/09/19 14:14:48;;;;;;;4.78;4.38;;;17.10;99.90;;;;;;5071854;28;20176;-70
2021/09/19 14:17:14;;;;;;;4.55;4.22;;;17.10;99.90;;;;;;5072949;28;20192;-70
2021/09/19 14:19:40;;;;;;;4.47;4.25;;;17.00;99.90;;;;;;5073055;28;20250;-70
2021/09/19 14:22:06;;;;;;;4.32;4.05;;;17.00;99.90;;;;;;5073024;28;20260;-70
2021/09/19 14:24:31;;;;;;;4.70;4.30;;;17.00;99.90;;;;;;5072956;28;20176;-70
2021/09/19 14:26:57;;;;;;;5.40;4.90;;;16.90;99.90;;;;;;5073015;28;20670;-70
2021/09/19 14:29:23;;;;;;;4.97;4.57;;;17.00;99.90;;;;;;5071680;28;20199;-70
2021/09/19 14:31:49;;;;;;;4.47;4.18;;;16.90;99.90;;;;;;5072892;28;20168;-70
2021/09/19 14:55:18;;;;;;;4.63;4.22;;;17.60;99.90;;;;;;5070738;28;20596;-70
2021/09/19 14:57:44;;;;;;;4.90;4.50;;;16.60;99.90;;;;;;5070690;28;20172;-70
2021/09/19 15:00:10;;;;;;;4.70;4.40;;;16.60;99.90;;;;;;5070634;28;20230;-70
2021/09/19 15:02:35;;;;;;;4.57;4.28;;;16.60;99.90;;;;;;5070662;28;20156;-70
2021/09/19 15:05:01;;;;;;;4.15;3.95;;;16.70;99.90;;;;;;5070496;28;20633;-70
2021/09/19 15:07:27;;;;;;;4.43;3.92;;;16.70;99.90;;;;;;5070513;28;20172;-70
2021/09/19 15:09:53;;;;;;;5.00;4.70;;;16.60;99.90;;;;;;5070436;28;20633;-70
2021/09/19 15:12:18;;;;;;;7.32;6.60;;;16.70;99.90;;;;;;5070322;28;20188;-71
2021/09/19 15:14:44;;;;;;;19.40;13.82;;;16.70;99.90;;;;;;5070334;28;20203;-71
2021/09/19 15:17:11;;;;;;;8.65;7.70;;;16.60;99.90;;;;;;5070319;28;20187;-70
2021/09/19 15:36:26;;;;;;;7.70;7.07;;;18.80;99.90;;;;;;5131703;27;20529;-70
2021/09/19 15:38:53;;;;;;;9.27;8.38;;;16.60;99.90;;;;;;5131744;28;20570;-70
2021/09/19 15:41:23;;;;;;;8.23;7.30;;;16.60;99.90;;;;;;5131685;28;20158;-70
2021/09/19 15:43:49;;;;;;;4.93;4.60;;;16.60;99.90;;;;;;5131847;28;20345;-70
2021/09/19 15:46:17;;;;;;;4.45;4.20;;;16.70;99.90;;;;;;5131510;28;20186;-69
2021/09/19 15:48:45;;;;;;;4.97;4.05;;;16.60;99.90;;;;;;5131392;28;20246;-69
2021/09/19 15:51:11;;;;;;;7.78;6.57;;;16.70;99.90;;;;;;5131247;28;20158;-68
2021/09/19 15:53:39;;;;;;;9.15;8.27;;;16.60;99.90;;;;;;5131100;28;20216;-68
2021/09/19 15:56:07;;;;;;;8.75;8.05;;;16.70;99.90;;;;;;5131159;28;20194;-69
2021/09/19 15:58:33;;;;;;;7.63;7.03;;;16.70;99.90;;;;;;5131246;27;20159;-69
2021/09/19 16:01:01;;;;;;;5.95;5.28;;;16.70;99.90;;;;;;5131156;28;20166;-68
2021/09/19 16:03:27;;;;;;;16.20;12.88;;;16.80;99.90;;;;;;5131143;28;20159;-68
2021/09/19 16:05:53;;;;;;;15.50;12.55;;;16.80;99.90;;;;;;5131098;28;20167;-69
2021/09/19 16:08:20;;;;;;;5.95;5.45;;;16.90;99.90;;;;;;5131110;28;20171;-69
2021/09/19 16:10:47;;;;;;;5.72;5.28;;;16.90;99.90;;;;;;5130920;28;20209;-69
2021/09/19 16:13:14;;;;;;;7.32;6.60;;;17.00;99.90;;;;;;5130901;28;20170;-69
2021/09/19 16:15:39;;;;;;;7.95;7.15;;;17.00;99.90;;;;;;5131317;28;20198;-69
2021/09/19 16:18:06;;;;;;;5.40;5.00;;;17.10;99.90;;;;;;5130778;28;20189;-68
2021/09/19 16:20:32;;;;;;;5.93;5.20;;;17.20;99.90;;;;;;5130748;28;20166;-69
2021/09/19 16:23:00;;;;;;;43.72;28.20;;;17.30;99.90;;;;;;5130702;28;20502;-68
2021/09/19 16:25:26;;;;;;;10.65;9.75;;;17.30;99.90;;;;;;5130662;28;20162;-68
2021/09/19 16:27:52;;;;;;;9.90;9.25;;;17.40;99.90;;;;;;5130618;28;20181;-68
2021/09/19 16:30:18;;;;;;;5.82;5.47;;;17.60;99.90;;;;;;5130611;28;20257;-68
2021/09/19 16:32:43;;;;;;;5.15;4.88;;;17.80;99.90;;;;;;5130474;28;20162;-68
2021/09/19 16:35:10;;;;;;;5.28;4.97;;;18.00;99.90;;;;;;5130236;28;20643;-69
2021/09/19 16:37:36;;;;;;;4.88;4.60;;;18.20;99.90;;;;;;5130377;28;20177;-69
2021/09/19 16:40:07;;;;;;;7.30;5.88;;;18.40;99.90;;;;;;5129132;28;20627;-68
2021/09/19 16:42:33;;;;;;;5.72;5.43;;;18.50;99.90;;;;;;5130294;27;20177;-69
2021/09/19 16:44:59;;;;;;;7.07;6.68;;;18.50;99.90;;;;;;5130280;28;20262;-69
2021/09/19 16:47:25;;;;;;;6.25;5.95;;;18.50;99.90;;;;;;5118874;28;20198;-69
2021/09/19 16:49:51;;;;;;;5.25;4.82;;;18.40;99.90;;;;;;5116501;28;20162;-69
2021/09/19 16:52:18;;;;;;;5.13;4.82;;;18.20;99.90;;;;;;5116650;28;20616;-68
2021/09/19 16:54:43;;;;;;;5.28;5.00;;;17.90;99.90;;;;;;5115106;28;20600;-69
2021/09/19 16:57:09;;;;;;;5.55;5.15;;;17.70;99.90;;;;;;5116399;28;20254;-68
2021/09/19 16:59:35;;;;;;;10.43;9.82;;;17.40;99.90;;;;;;5115030;28;20258;-68
2021/09/19 17:02:01;;;;;;;8.05;7.45;;;17.20;99.90;;;;;;5116291;28;20178;-68
2021/09/19 17:04:26;;;;;;;5.15;4.75;;;17.10;99.90;;;;;;5115051;28;20174;-68
2021/09/19 17:06:52;;;;;;;5.20;4.90;;;16.80;99.90;;;;;;5116238;28;20258;-68
2021/09/19 17:09:17;;;;;;;5.25;4.95;;;16.60;99.90;;;;;;5116200;28;20167;-68
2021/09/19 17:11:43;;;;;;;5.20;4.90;;;16.40;99.90;;;;;;5116114;28;20171;-69
2021/09/19 17:14:09;;;;;;;7.25;6.85;;;16.20;99.90;;;;;;5115924;28;20532;-68
2021/09/19 17:16:35;;;;;;;6.68;6.28;;;16.00;99.90;;;;;;5115975;28;20174;-68
2021/09/19 17:19:01;;;;;;;5.90;5.60;;;15.90;99.90;;;;;;5115975;28;20170;-68
2021/09/19 17:21:29;;;;;;;4.60;4.38;;;15.70;99.90;;;;;;5116012;28;20155;-68
2021/09/19 17:23:55;;;;;;;5.57;5.28;;;15.60;99.90;;;;;;5115900;28;20179;-68
2021/09/19 17:26:21;;;;;;;5.28;4.97;;;15.50;99.90;;;;;;5115805;28;20528;-68
2021/09/19 17:28:46;;;;;;;5.20;4.90;;;15.40;99.90;;;;;;5115731;28;20166;-68
2021/09/19 17:31:12;;;;;;;4.20;3.97;;;15.30;99.90;;;;;;5115724;28;20185;-68
